createdAt,value
2018-01-08T00:00:55.391Z,19.47
2018-01-08T00:03:22.849Z,22.20
2018-01-08T00:05:50.302Z,14.87
2018-01-08T00:08:18.254Z,15.80
2018-01-08T00:10:45.701Z,20.33
2018-01-08T00:13:13.152Z,24.60
2018-01-08T00:15:41.053Z,26.77
2018-01-08T00:18:08.505Z,13.30
2018-01-08T00:20:35.949Z,18.40
2018-01-08T00:23:03.731Z,15.60
2018-01-08T00:25:31.172Z,15.60
2018-01-08T00:27:58.620Z,13.87
2018-01-08T00:30:26.730Z,21.20
2018-01-08T00:32:54.173Z,17.53
2018-01-08T00:35:21.622Z,19.73
2018-01-08T00:37:49.409Z,16.10
2018-01-08T00:40:17.133Z,24.60
2018-01-08T00:42:44.593Z,19.13
2018-01-08T00:45:12.410Z,29.37
2018-01-08T00:47:39.875Z,19.73
2018-01-08T00:50:07.326Z,19.23
2018-01-08T00:52:35.093Z,30.00
2018-01-08T00:55:02.550Z,33.57
2018-01-08T00:57:30.696Z,29.00
2018-01-08T00:59:58.717Z,24.33
2018-01-08T01:02:26.168Z,21.60
2018-01-08T01:04:53.617Z,27.47
2018-01-08T01:07:21.457Z,16.43
2018-01-08T01:09:48.906Z,22.63
2018-01-08T01:12:16.425Z,20.03
2018-01-08T01:14:44.392Z,19.73
2018-01-08T01:17:11.892Z,17.60
2018-01-08T01:19:39.353Z,16.47
2018-01-08T01:22:07.076Z,11.30
2018-01-08T01:24:34.538Z,15.13
2018-01-08T01:27:01.985Z,18.20
2018-01-08T01:29:29.755Z,14.60
2018-01-08T01:31:57.202Z,15.60
2018-01-08T01:34:24.653Z,20.73
2018-01-08T01:36:52.449Z,17.33
2018-01-08T01:39:19.894Z,16.93
2018-01-08T01:41:47.349Z,15.43
2018-01-08T01:44:15.098Z,13.87
2018-01-08T01:46:42.554Z,11.67
2018-01-08T01:49:19.890Z,16.40
2018-01-08T01:51:47.336Z,16.20
2018-01-08T01:54:14.788Z,15.90
2018-01-08T01:56:42.576Z,15.67
2018-01-08T01:59:11.334Z,21.03
2018-01-08T02:01:38.834Z,17.73
2018-01-08T02:04:06.789Z,24.73
2018-01-08T02:06:34.228Z,23.47
2018-01-08T02:09:01.685Z,24.77
2018-01-08T02:11:29.504Z,27.90
2018-01-08T02:13:56.949Z,25.90
2018-01-08T02:16:24.414Z,23.57
2018-01-08T02:18:52.215Z,18.43
2018-01-08T02:21:19.683Z,18.20
2018-01-08T02:23:47.145Z,18.00
2018-01-08T02:26:15.095Z,17.73
2018-01-08T02:28:42.549Z,17.00
2018-01-08T02:31:09.997Z,25.13
2018-01-08T02:33:37.696Z,21.37
2018-01-08T02:36:05.154Z,17.77
2018-01-08T02:38:32.614Z,14.70
2018-01-08T02:41:00.540Z,15.00
2018-01-08T02:43:28.006Z,14.17
2018-01-08T02:45:55.462Z,13.97
2018-01-08T02:48:23.529Z,18.30
2018-01-08T02:50:50.988Z,18.17
2018-01-08T02:53:18.438Z,26.40
2018-01-08T02:55:46.239Z,14.50
2018-01-08T02:58:13.697Z,19.47
2018-01-08T03:00:41.814Z,21.23
2018-01-08T03:03:10.137Z,24.70
2018-01-08T03:05:37.589Z,22.43
2018-01-08T03:08:05.070Z,18.40
2018-01-08T03:10:32.847Z,19.60
2018-01-08T03:13:00.305Z,29.73
2018-01-08T03:15:27.759Z,26.83
2018-01-08T03:17:55.816Z,21.37
2018-01-08T03:20:23.272Z,30.30
2018-01-08T03:22:50.724Z,23.73
2018-01-08T03:25:18.505Z,25.00
2018-01-08T03:27:45.972Z,19.67
2018-01-08T03:30:13.428Z,28.43
2018-01-08T03:32:41.185Z,16.57
2018-01-08T03:35:08.641Z,17.33
2018-01-08T03:37:36.086Z,21.03
2018-01-08T03:40:04.186Z,17.97
2018-01-08T03:42:31.652Z,20.13
2018-01-08T03:44:59.111Z,15.87
2018-01-08T03:47:26.890Z,16.43
2018-01-08T03:49:54.365Z,15.97
2018-01-08T03:52:21.838Z,17.70
2018-01-08T03:54:49.561Z,19.33
2018-01-08T03:57:18.397Z,15.77
2018-01-08T03:59:45.857Z,24.73
2018-01-08T04:02:15.014Z,12.60
2018-01-08T04:04:42.472Z,13.03
2018-01-08T04:07:09.941Z,11.03
2018-01-08T04:09:37.701Z,11.43
2018-01-08T04:12:05.171Z,14.43
2018-01-08T04:14:32.621Z,13.73
2018-01-08T04:17:00.665Z,13.57
2018-01-08T04:19:28.120Z,19.90
2018-01-08T04:21:55.574Z,13.20
2018-01-08T04:24:23.368Z,18.53
2018-01-08T04:26:50.838Z,14.20
2018-01-08T04:29:18.290Z,11.20
2018-01-08T04:31:46.060Z,20.57
2018-01-08T04:34:13.516Z,12.30
2018-01-08T04:36:40.971Z,15.47
2018-01-08T04:39:09.054Z,12.67
2018-01-08T04:41:36.505Z,18.90
2018-01-08T04:44:03.962Z,14.37
2018-01-08T04:46:31.740Z,14.20
2018-01-08T04:48:59.191Z,11.57
2018-01-08T04:51:26.641Z,19.30
2018-01-08T04:53:54.438Z,10.23
2018-01-08T04:56:21.881Z,15.37
2018-01-08T04:58:49.348Z,10.13
2018-01-08T05:01:17.424Z,10.67
2018-01-08T05:03:45.378Z,9.37
2018-01-08T05:06:12.826Z,6.40
2018-01-08T05:08:40.417Z,6.83
2018-01-08T05:11:07.860Z,6.90
2018-01-08T05:13:35.309Z,9.40
2018-01-08T05:16:02.981Z,7.17
2018-01-08T05:18:30.425Z,5.97
2018-01-08T05:20:57.869Z,6.13
2018-01-08T05:23:25.503Z,5.93
2018-01-08T05:25:52.945Z,5.20
2018-01-08T05:28:20.402Z,16.60
2018-01-08T05:30:48.744Z,5.73
2018-01-08T05:33:16.195Z,10.63
2018-01-08T05:35:43.637Z,8.17
2018-01-08T05:38:11.333Z,10.53
2018-01-08T05:40:38.781Z,5.83
2018-01-08T05:43:06.220Z,5.77
2018-01-08T05:45:33.856Z,7.87
2018-01-08T05:48:01.304Z,7.03
2018-01-08T05:50:28.746Z,4.90
2018-01-08T05:52:56.545Z,7.30
2018-01-08T05:55:24.009Z,7.07
2018-01-08T05:57:51.469Z,8.43
2018-01-08T06:00:19.544Z,4.90
2018-01-08T06:02:47.001Z,6.97
2018-01-08T06:05:15.133Z,8.60
2018-01-08T06:07:42.851Z,10.03
2018-01-08T06:10:10.298Z,9.10
2018-01-08T06:12:37.738Z,5.37
2018-01-08T06:15:05.533Z,5.07
2018-01-08T06:17:32.981Z,9.13
2018-01-08T06:20:00.425Z,6.27
2018-01-08T06:22:28.062Z,6.00
2018-01-08T06:24:55.517Z,6.83
2018-01-08T06:27:22.961Z,6.80
2018-01-08T06:29:50.588Z,5.73
2018-01-08T06:32:18.038Z,4.60
2018-01-08T06:34:45.488Z,4.97
2018-01-08T06:37:13.278Z,6.20
2018-01-08T06:39:40.719Z,8.33
2018-01-08T06:42:08.162Z,7.47
2018-01-08T06:44:35.961Z,5.70
2018-01-08T06:47:03.409Z,4.87
2018-01-08T06:49:30.856Z,8.30
2018-01-08T06:51:58.649Z,6.37
2018-01-08T06:54:26.090Z,9.40
2018-01-08T06:56:53.535Z,6.33
2018-01-08T06:59:21.338Z,8.60
2018-01-08T07:01:48.786Z,6.77
2018-01-08T07:04:16.235Z,11.97
2018-01-08T07:06:44.644Z,5.40
2018-01-08T07:09:12.095Z,7.00
2018-01-08T07:11:39.533Z,7.70
2018-01-08T07:14:07.937Z,4.10
2018-01-08T07:16:35.384Z,12.20
2018-01-08T07:19:02.827Z,6.07
2018-01-08T07:21:30.569Z,4.70
2018-01-08T07:23:58.009Z,5.07
2018-01-08T07:26:25.452Z,4.80
2018-01-08T07:28:53.314Z,7.83
2018-01-08T07:31:20.759Z,5.17
2018-01-08T07:33:48.213Z,14.43
2018-01-08T07:36:16.025Z,4.97
2018-01-08T07:38:43.476Z,5.87
2018-01-08T07:41:10.929Z,10.40
2018-01-08T07:43:38.694Z,7.00
2018-01-08T07:46:06.151Z,6.90
2018-01-08T07:48:33.640Z,10.63
2018-01-08T07:51:01.335Z,12.43
2018-01-08T07:53:28.800Z,11.67
2018-01-08T07:55:56.252Z,10.63
2018-01-08T07:58:24.074Z,9.37
2018-01-08T08:00:51.517Z,7.13
2018-01-08T08:03:18.976Z,16.03
2018-01-08T08:05:46.745Z,8.23
2018-01-08T08:08:14.272Z,10.43
2018-01-08T08:10:41.719Z,12.83
2018-01-08T08:13:09.433Z,9.13
2018-01-08T08:15:36.882Z,10.73
2018-01-08T08:18:04.334Z,12.10
2018-01-08T08:20:32.124Z,7.83
2018-01-08T08:22:59.566Z,16.53
2018-01-08T08:25:27.025Z,8.73
2018-01-08T08:27:55.123Z,12.00
2018-01-08T08:30:22.569Z,12.17
2018-01-08T08:32:50.014Z,14.53
2018-01-08T08:35:17.800Z,10.03
2018-01-08T08:37:45.246Z,8.00
2018-01-08T08:40:12.707Z,11.67
2018-01-08T08:42:40.797Z,9.83
2018-01-08T08:45:08.250Z,12.43
2018-01-08T08:47:35.709Z,16.50
2018-01-08T08:50:03.489Z,17.93
2018-01-08T08:52:30.934Z,11.23
2018-01-08T08:54:58.382Z,11.53
2018-01-08T08:57:26.180Z,22.27
2018-01-08T08:59:53.629Z,14.50
2018-01-08T09:02:21.076Z,14.57
2018-01-08T09:04:48.852Z,11.77
2018-01-08T09:07:16.301Z,24.80
2018-01-08T09:09:44.460Z,14.43
2018-01-08T09:12:12.384Z,10.90
2018-01-08T09:14:39.851Z,10.07
2018-01-08T09:17:07.301Z,20.90
2018-01-08T09:19:35.161Z,26.93
2018-01-08T09:22:02.621Z,20.83
2018-01-08T09:24:30.072Z,14.83
2018-01-08T09:26:57.836Z,17.70
2018-01-08T09:29:25.281Z,20.17
2018-01-08T09:31:52.723Z,21.47
2018-01-08T09:34:20.463Z,10.27
2018-01-08T09:36:47.912Z,12.40
2018-01-08T09:39:15.360Z,6.33
2018-01-08T09:41:43.217Z,11.73
2018-01-08T09:44:10.669Z,12.10
2018-01-08T09:46:38.109Z,8.10
2018-01-08T09:49:05.921Z,8.40
2018-01-08T09:51:33.361Z,7.67
2018-01-08T09:54:00.810Z,7.30
2018-01-08T09:56:28.589Z,5.63
2018-01-08T09:58:56.025Z,8.07
2018-01-08T10:01:23.469Z,13.83
2018-01-08T10:04:03.001Z,4.83
2018-01-08T10:06:42.117Z,8.60
2018-01-08T10:09:21.529Z,6.43
2018-01-08T10:12:01.128Z,7.30
2018-01-08T10:14:40.417Z,8.37
2018-01-08T10:17:19.641Z,8.03
2018-01-08T10:20:04.522Z,7.10
2018-01-08T10:22:31.973Z,5.90
2018-01-08T10:24:59.443Z,6.07
2018-01-08T10:27:27.180Z,6.10
2018-01-08T10:29:54.627Z,9.40
2018-01-08T10:32:22.075Z,6.30
2018-01-08T10:34:50.104Z,7.10
2018-01-08T10:37:17.553Z,7.67
2018-01-08T10:39:44.993Z,7.17
2018-01-08T10:42:18.414Z,7.40
2018-01-08T10:44:51.394Z,14.03
2018-01-08T10:47:25.009Z,11.10
2018-01-08T10:49:57.968Z,10.80
2018-01-08T10:52:24.854Z,14.97
2018-01-08T10:54:56.895Z,9.83
2018-01-08T10:57:24.347Z,9.10
2018-01-08T10:59:51.794Z,7.70
2018-01-08T11:02:24.814Z,7.00
2018-01-08T11:04:52.253Z,18.67
2018-01-08T11:07:19.697Z,8.00
2018-01-08T11:09:47.509Z,8.27
2018-01-08T11:12:14.947Z,9.77
2018-01-08T11:14:42.386Z,19.30
2018-01-08T11:17:10.205Z,8.17
2018-01-08T11:19:37.673Z,7.30
2018-01-08T11:22:05.117Z,7.30
2018-01-08T11:24:33.181Z,5.90
2018-01-08T11:27:00.625Z,5.67
2018-01-08T11:29:28.078Z,11.57
2018-01-08T11:31:55.870Z,6.23
2018-01-08T11:34:23.308Z,12.00
2018-01-08T11:36:50.761Z,10.33
2018-01-08T11:39:18.564Z,11.23
2018-01-08T11:41:46.010Z,8.83
2018-01-08T11:44:13.461Z,11.07
2018-01-08T11:46:41.247Z,13.07
2018-01-08T11:49:08.709Z,16.97
2018-01-08T11:51:36.156Z,10.57
2018-01-08T11:54:03.947Z,13.90
2018-01-08T11:56:31.412Z,25.47
2018-01-08T11:58:58.857Z,11.43
2018-01-08T12:01:26.488Z,11.93
2018-01-08T12:03:53.934Z,8.83
2018-01-08T12:06:21.385Z,14.40
2018-01-08T12:08:49.309Z,19.57
2018-01-08T12:11:16.764Z,18.83
2018-01-08T12:13:44.616Z,13.83
2018-01-08T12:16:12.609Z,10.53
2018-01-08T12:18:40.057Z,16.43
2018-01-08T12:21:07.503Z,11.00
2018-01-08T12:23:35.301Z,14.30
2018-01-08T12:26:02.744Z,10.87
2018-01-08T12:28:30.189Z,10.47
2018-01-08T12:30:58.284Z,11.20
2018-01-08T12:33:25.724Z,11.03
2018-01-08T12:35:53.174Z,12.13
2018-01-08T12:38:20.981Z,17.50
2018-01-08T12:40:48.416Z,9.53
2018-01-08T12:43:15.860Z,9.50
2018-01-08T12:45:43.436Z,9.60
2018-01-08T12:48:10.885Z,10.70
2018-01-08T12:50:38.332Z,14.27
2018-01-08T12:53:06.055Z,12.70
2018-01-08T12:55:33.500Z,12.80
2018-01-08T12:58:00.950Z,11.30
2018-01-08T13:00:28.737Z,10.80
2018-01-08T13:02:56.188Z,10.27
2018-01-08T13:05:23.651Z,11.13
2018-01-08T13:07:51.381Z,11.30
2018-01-08T13:10:18.836Z,12.03
2018-01-08T13:12:46.303Z,10.00
2018-01-08T13:15:14.105Z,17.10
2018-01-08T13:17:42.354Z,11.17
2018-01-08T13:20:09.801Z,11.40
2018-01-08T13:22:37.720Z,15.20
2018-01-08T13:25:05.174Z,12.20
2018-01-08T13:27:32.861Z,10.30
2018-01-08T13:30:00.713Z,11.60
2018-01-08T13:32:28.181Z,23.43
2018-01-08T13:34:55.625Z,15.63
2018-01-08T13:37:23.402Z,16.97
2018-01-08T13:39:50.864Z,10.50
2018-01-08T13:42:18.326Z,25.00
2018-01-08T13:44:46.365Z,10.70
2018-01-08T13:47:13.810Z,10.70
2018-01-08T13:49:41.277Z,13.10
2018-01-08T13:52:09.390Z,11.30
2018-01-08T13:54:36.856Z,12.27
2018-01-08T13:57:04.314Z,19.83
2018-01-08T13:59:32.063Z,11.70
2018-01-08T14:01:59.525Z,13.20
2018-01-08T14:04:26.981Z,11.67
2018-01-08T14:06:54.761Z,19.40
2018-01-08T14:09:22.222Z,11.17
2018-01-08T14:11:49.698Z,12.30
2018-01-08T14:14:17.448Z,13.33
2018-01-08T14:16:45.601Z,11.43
2018-01-08T14:19:13.061Z,12.20
2018-01-08T14:21:41.368Z,12.27
2018-01-08T14:24:08.821Z,13.50
2018-01-08T14:26:36.273Z,12.20
2018-01-08T14:29:04.045Z,9.03
2018-01-08T14:31:31.497Z,9.80
2018-01-08T14:33:58.952Z,7.93
2018-01-08T14:36:26.718Z,9.10
2018-01-08T14:38:54.173Z,12.37
2018-01-08T14:41:21.637Z,10.67
2018-01-08T14:43:49.437Z,13.77
2018-01-08T14:46:16.894Z,12.47
2018-01-08T14:48:44.346Z,10.10
2018-01-08T14:51:12.109Z,10.40
2018-01-08T14:53:39.577Z,9.43
2018-01-08T14:56:07.034Z,9.60
2018-01-08T14:58:34.793Z,11.83
2018-01-08T15:01:02.249Z,12.67
2018-01-08T15:03:29.705Z,12.33
2018-01-08T15:05:57.507Z,13.03
2018-01-08T15:08:24.978Z,13.27
2018-01-08T15:10:52.424Z,9.03
2018-01-08T15:13:20.143Z,18.70
2018-01-08T15:15:47.590Z,8.87
2018-01-08T15:18:16.740Z,20.13
2018-01-08T15:20:44.396Z,15.00
2018-01-08T15:23:11.850Z,14.00
2018-01-08T15:25:39.299Z,10.50
2018-01-08T15:28:07.004Z,14.50
2018-01-08T15:30:34.479Z,16.70
2018-01-08T15:33:01.933Z,10.10
2018-01-08T15:35:29.773Z,7.63
2018-01-08T15:37:57.229Z,9.70
2018-01-08T15:40:24.689Z,8.43
2018-01-08T15:42:52.672Z,8.10
2018-01-08T15:45:20.116Z,8.90
2018-01-08T15:47:47.586Z,13.70
2018-01-08T15:50:15.452Z,12.87
2018-01-08T15:52:42.971Z,14.03
2018-01-08T15:55:10.385Z,9.30
2018-01-08T15:57:38.145Z,10.47
2018-01-08T16:00:05.609Z,10.97
2018-01-08T16:02:33.065Z,13.27
2018-01-08T16:05:00.817Z,13.13
2018-01-08T16:07:28.264Z,12.77
2018-01-08T16:09:55.717Z,16.80
2018-01-08T16:12:23.512Z,8.23
2018-01-08T16:14:50.975Z,15.43
2018-01-08T16:17:18.434Z,9.83
2018-01-08T16:19:46.512Z,14.33
2018-01-08T16:22:13.982Z,11.80
2018-01-08T16:24:41.444Z,10.57
2018-01-08T16:27:09.200Z,10.10
2018-01-08T16:29:36.667Z,10.83
2018-01-08T16:32:04.123Z,9.03
2018-01-08T16:34:31.889Z,8.27
2018-01-08T16:36:59.350Z,10.37
2018-01-08T16:39:26.821Z,10.03
2018-01-08T16:41:54.558Z,12.37
2018-01-08T16:44:22.032Z,14.20
2018-01-08T16:46:49.484Z,9.00
2018-01-08T16:49:17.192Z,12.00
2018-01-08T16:51:44.654Z,9.80
2018-01-08T16:54:12.112Z,9.33
2018-01-08T16:56:39.948Z,9.40
2018-01-08T16:59:07.394Z,9.83
2018-01-08T17:01:34.859Z,7.40
2018-01-08T17:04:02.622Z,7.10
2018-01-08T17:06:30.072Z,6.70
2018-01-08T17:08:57.570Z,7.70
2018-01-08T17:11:25.247Z,7.57
2018-01-08T17:13:52.694Z,9.40
2018-01-08T17:16:20.138Z,12.23
2018-01-08T17:18:48.306Z,8.07
2018-01-08T17:21:16.152Z,10.53
2018-01-08T17:23:43.604Z,12.20
2018-01-08T17:26:11.297Z,9.40
2018-01-08T17:28:38.773Z,9.73
2018-01-08T17:31:06.228Z,9.83
2018-01-08T17:33:34.288Z,10.20
2018-01-08T17:36:01.742Z,10.97
2018-01-08T17:38:29.365Z,14.00
2018-01-08T17:40:56.991Z,17.13
2018-01-08T17:43:24.442Z,17.33
2018-01-08T17:45:52.539Z,8.90
2018-01-08T17:48:20.961Z,23.00
2018-01-08T17:50:48.412Z,12.10
2018-01-08T17:53:15.885Z,6.27
2018-01-08T17:55:44.206Z,6.83
2018-01-08T17:58:11.661Z,12.27
2018-01-08T18:00:39.102Z,11.20
2018-01-08T18:03:07.101Z,10.50
2018-01-08T18:05:34.550Z,9.57
2018-01-08T18:08:02.016Z,8.70
2018-01-08T18:10:29.843Z,9.40
2018-01-08T18:12:57.637Z,10.67
2018-01-08T18:15:25.085Z,7.17
2018-01-08T18:17:52.886Z,10.33
2018-01-08T18:20:20.349Z,9.60
2018-01-08T18:22:49.234Z,7.60
2018-01-08T18:25:17.670Z,9.07
2018-01-08T18:27:45.140Z,13.10
2018-01-08T18:30:12.616Z,16.50
2018-01-08T18:32:40.426Z,12.30
2018-01-08T18:35:08.453Z,9.60
2018-01-08T18:37:35.904Z,10.63
2018-01-08T18:40:03.708Z,13.03
2018-01-08T18:42:31.180Z,11.60
2018-01-08T18:44:58.635Z,10.67
2018-01-08T18:47:26.398Z,15.60
2018-01-08T18:49:53.858Z,10.63
2018-01-08T18:52:21.305Z,15.60
2018-01-08T18:54:49.138Z,14.30
2018-01-08T18:57:16.601Z,21.30
2018-01-08T18:59:44.052Z,14.73
2018-01-08T19:02:12.709Z,11.80
2018-01-08T19:04:40.176Z,13.33
2018-01-08T19:07:07.630Z,10.07
2018-01-08T19:09:35.990Z,15.00
2018-01-08T19:12:03.497Z,11.97
2018-01-08T19:14:31.772Z,11.07
2018-01-08T19:16:59.590Z,10.47
2018-01-08T19:19:27.031Z,9.20
2018-01-08T19:21:54.498Z,15.47
2018-01-08T19:24:25.520Z,25.27
2018-01-08T19:26:53.617Z,12.10
2018-01-08T19:29:21.085Z,14.37
2018-01-08T19:31:49.058Z,7.47
2018-01-08T19:34:16.514Z,6.33
2018-01-08T19:36:43.960Z,14.30
2018-01-08T19:39:11.971Z,7.43
2018-01-08T19:41:39.433Z,8.60
2018-01-08T19:44:06.912Z,11.27
2018-01-08T19:46:34.666Z,10.40
2018-01-08T19:49:02.629Z,9.97
2018-01-08T19:51:30.138Z,9.30
2018-01-08T19:53:57.937Z,8.23
2018-01-08T19:56:25.388Z,15.03
2018-01-08T19:58:52.877Z,10.73
2018-01-08T20:01:20.973Z,9.50
2018-01-08T20:03:48.430Z,12.03
2018-01-08T20:06:15.895Z,9.77
2018-01-08T20:08:43.647Z,11.10
2018-01-08T20:11:11.109Z,13.67
2018-01-08T20:13:38.573Z,8.73
2018-01-08T20:16:06.286Z,22.03
2018-01-08T20:18:33.772Z,10.53
2018-01-08T20:21:01.260Z,12.33
2018-01-08T20:23:28.997Z,9.80
2018-01-08T20:25:57.158Z,16.30
2018-01-08T20:28:25.178Z,12.10
2018-01-08T20:30:52.928Z,10.27
2018-01-08T20:33:20.381Z,11.10
2018-01-08T20:35:47.845Z,10.17
2018-01-08T20:38:15.596Z,9.90
2018-01-08T20:40:43.052Z,11.90
2018-01-08T20:43:10.516Z,10.07
2018-01-08T20:45:38.294Z,22.80
2018-01-08T20:48:06.044Z,7.80
2018-01-08T20:50:33.489Z,9.23
2018-01-08T20:53:01.913Z,8.40
2018-01-08T20:55:29.370Z,8.20
2018-01-08T20:57:56.814Z,9.30
2018-01-08T21:00:24.895Z,9.07
2018-01-08T21:02:52.352Z,9.03
2018-01-08T21:05:19.821Z,15.23
2018-01-08T21:07:47.582Z,10.80
2018-01-08T21:10:15.031Z,9.73
2018-01-08T21:12:42.479Z,8.90
2018-01-08T21:15:10.274Z,7.27
2018-01-08T21:17:37.733Z,11.63
2018-01-08T21:20:05.193Z,12.03
2018-01-08T21:22:32.952Z,8.33
2018-01-08T21:25:00.401Z,9.37
2018-01-08T21:27:28.258Z,12.80
2018-01-08T21:29:57.228Z,11.93
2018-01-08T21:32:24.728Z,9.03
2018-01-08T21:34:52.174Z,8.80
2018-01-08T21:37:20.001Z,6.63
2018-01-08T21:39:47.484Z,12.73
2018-01-08T21:42:15.544Z,7.90
2018-01-08T21:44:43.486Z,9.43
2018-01-08T21:47:11.811Z,8.73
2018-01-08T21:49:39.281Z,12.57
2018-01-08T21:52:07.129Z,9.20
2018-01-08T21:54:34.577Z,12.87
2018-01-08T21:57:02.025Z,18.73
2018-01-08T21:59:29.769Z,8.23
2018-01-08T22:01:57.214Z,9.20
2018-01-08T22:04:24.661Z,8.17
2018-01-08T22:06:52.461Z,10.57
2018-01-08T22:09:19.909Z,22.17
2018-01-08T22:11:47.357Z,7.67
2018-01-08T22:14:15.146Z,9.63
2018-01-08T22:16:42.590Z,12.73
2018-01-08T22:19:10.720Z,10.50
2018-01-08T22:21:38.446Z,8.50
2018-01-08T22:24:05.889Z,9.50
2018-01-08T22:26:33.345Z,7.97
2018-01-08T22:29:01.747Z,13.60
2018-01-08T22:31:29.257Z,7.60
2018-01-08T22:33:56.718Z,9.53
2018-01-08T22:36:24.433Z,8.53
2018-01-08T22:38:51.882Z,6.90
2018-01-08T22:41:19.333Z,17.53
2018-01-08T22:43:47.069Z,11.90
2018-01-08T22:46:14.521Z,9.13
2018-01-08T22:48:41.974Z,10.17
2018-01-08T22:51:09.805Z,15.37
2018-01-08T22:53:37.393Z,7.50
2018-01-08T22:56:04.846Z,6.93
2018-01-08T22:58:32.785Z,7.47
2018-01-08T23:01:00.229Z,5.97
2018-01-08T23:03:27.677Z,7.20
2018-01-08T23:05:55.485Z,8.97
2018-01-08T23:08:22.940Z,8.37
2018-01-08T23:10:50.403Z,12.90
2018-01-08T23:13:18.185Z,7.50
2018-01-08T23:15:45.636Z,7.40
2018-01-08T23:18:13.084Z,8.03
2018-01-08T23:20:40.860Z,10.27
2018-01-08T23:23:08.553Z,6.43
2018-01-08T23:25:36.008Z,10.40
2018-01-08T23:28:04.160Z,6.67
2018-01-08T23:30:32.314Z,9.80
2018-01-08T23:32:59.775Z,10.53
2018-01-08T23:35:27.785Z,9.67
2018-01-08T23:37:55.237Z,10.20
2018-01-08T23:40:22.692Z,13.53
2018-01-08T23:42:50.465Z,9.63
2018-01-08T23:45:17.925Z,16.73
2018-01-08T23:47:45.385Z,11.23
2018-01-08T23:50:13.153Z,10.37
2018-01-08T23:52:40.613Z,11.20
2018-01-08T23:55:08.066Z,8.90
2018-01-08T23:57:35.658Z,8.27
